Time;durP1;ratioP1;P1;durP2;ratioP2;P2;SDS_P1;SDS_P2;PMS_P1;PMS_P2;Temp;Humidity;BMP_temperature;BMP_pressure;BME280_temperature;BME280_humidity;BME280_pressure;Samples;Min_cycle;Max_cycle;Signal;HPM_P1;HPM_P2
2021/05/01 00:01:27;;;;;;;62.30;39.30;;;;;;;6.16;100.00;100889.50;5048219;28;20066;-75
2021/05/01 00:03:53;;;;;;;60.42;36.20;;;;;;;6.14;100.00;100887.94;5033595;28;20048;-78
2021/05/01 00:06:18;;;;;;;54.00;32.58;;;;;;;6.12;100.00;100887.22;5029427;28;20090;-80
2021/05/01 00:08:43;;;;;;;60.20;39.63;;;;;;;6.15;100.00;100886.97;5010495;28;20060;-76
2021/05/01 00:11:09;;;;;;;55.80;37.90;;;;;;;6.20;100.00;100880.25;5028192;28;20106;-76
2021/05/01 00:13:35;;;;;;;60.05;37.28;;;;;;;6.23;100.00;100874.66;5026753;28;20098;-78
2021/05/01 00:16:03;;;;;;;57.58;36.33;;;;;;;6.17;100.00;100877.84;5038945;28;20472;-77
2021/05/01 00:18:28;;;;;;;51.58;35.83;;;;;;;6.19;100.00;100880.41;5044265;28;20087;-76
2021/05/01 00:20:54;;;;;;;53.42;33.30;;;;;;;6.10;100.00;100882.88;5047367;28;20041;-76
2021/05/01 00:23:19;;;;;;;51.70;32.55;;;;;;;6.15;100.00;100878.97;5042961;28;20549;-76
2021/05/01 00:25:45;;;;;;;52.63;30.08;;;;;;;6.06;100.00;100872.63;5046814;28;20052;-78
2021/05/01 00:28:11;;;;;;;51.10;31.45;;;;;;;6.02;100.00;100866.72;5027144;28;20119;-79
2021/05/01 00:30:37;;;;;;;48.65;32.78;;;;;;;6.08;100.00;100873.34;5043869;28;20481;-79
2021/05/01 00:33:03;;;;;;;50.17;34.10;;;;;;;6.08;100.00;100871.50;5042878;28;20041;-76
2021/05/01 00:35:28;;;;;;;48.25;31.73;;;;;;;6.01;100.00;100878.34;4995543;28;20049;-78
2021/05/01 00:37:54;;;;;;;48.55;32.88;;;;;;;6.04;100.00;100879.88;5046866;28;20053;-76
2021/05/01 00:40:20;;;;;;;47.97;32.17;;;;;;;5.98;100.00;100875.94;5048502;28;20377;-77
2021/05/01 00:42:45;;;;;;;45.50;29.20;;;;;;;5.98;100.00;100875.09;5049344;28;20044;-76
2021/05/01 00:45:11;;;;;;;45.53;27.55;;;;;;;5.93;100.00;100883.50;5036023;28;20556;-76
2021/05/01 00:47:37;;;;;;;48.33;29.45;;;;;;;5.91;100.00;100866.75;5046171;28;20505;-76
2021/05/01 00:50:04;;;;;;;47.40;29.67;;;;;;;5.89;100.00;100874.03;5030777;28;20049;-77
2021/05/01 00:52:30;;;;;;;41.90;28.45;;;;;;;5.89;100.00;100876.69;5052862;28;20040;-76
2021/05/01 00:54:56;;;;;;;49.22;31.52;;;;;;;5.94;100.00;100879.84;5044844;28;20049;-77
2021/05/01 00:57:22;;;;;;;44.92;28.55;;;;;;;5.91;100.00;100880.09;5031591;28;20131;-78
2021/05/01 00:59:47;;;;;;;49.97;28.50;;;;;;;5.95;100.00;100880.69;5042938;28;21477;-77
2021/05/01 01:02:15;;;;;;;46.78;29.30;;;;;;;5.97;100.00;100884.91;5009227;28;20378;-76
2021/05/01 01:04:40;;;;;;;48.80;31.35;;;;;;;6.00;100.00;100878.47;5008714;28;20045;-78
2021/05/01 01:07:06;;;;;;;49.08;30.77;;;;;;;5.95;100.00;100873.53;5046679;28;20169;-77
2021/05/01 01:09:31;;;;;;;51.00;30.85;;;;;;;5.94;100.00;100869.19;5041303;28;20050;-79
2021/05/01 01:11:57;;;;;;;50.00;30.77;;;;;;;5.95;100.00;100867.38;5044494;28;20373;-76
2021/05/01 01:14:22;;;;;;;56.17;33.35;;;;;;;6.03;100.00;100872.88;5042188;28;20044;-78
2021/05/01 01:16:48;;;;;;;54.22;34.03;;;;;;;6.07;100.00;100875.16;5040085;28;20077;-78
2021/05/01 01:19:14;;;;;;;51.35;29.13;;;;;;;5.96;100.00;100869.91;5054398;28;20561;-76
2021/05/01 01:21:45;;;;;;;50.03;31.98;;;;;;;5.95;100.00;100876.19;5036266;28;20033;-77
2021/05/01 01:24:11;;;;;;;54.47;35.10;;;;;;;5.98;100.00;100870.59;5056468;28;20056;-77
2021/05/01 01:26:38;;;;;;;56.47;32.72;;;;;;;5.96;100.00;100867.25;5019075;28;20056;-77
2021/05/01 01:29:04;;;;;;;62.08;36.35;;;;;;;6.02;100.00;100872.03;5054608;28;20044;-76
2021/05/01 01:31:30;;;;;;;61.95;36.53;;;;;;;6.08;100.00;100868.00;5023822;28;20037;-75
2021/05/01 01:33:55;;;;;;;61.08;34.50;;;;;;;6.09;100.00;100867.84;5038564;28;20542;-78
2021/05/01 01:36:21;;;;;;;58.05;34.30;;;;;;;6.08;100.00;100871.50;5025956;28;20559;-77
2021/05/01 01:38:46;;;;;;;66.57;41.13;;;;;;;6.17;100.00;100871.69;5037081;28;20544;-76
2021/05/01 01:41:11;;;;;;;66.32;39.13;;;;;;;6.23;100.00;100871.16;5035206;28;20421;-78
2021/05/01 01:43:37;;;;;;;71.10;39.25;;;;;;;6.18;100.00;100870.69;5057111;28;20064;-76
2021/05/01 01:46:03;;;;;;;80.50;47.30;;;;;;;6.20;100.00;100871.41;5036326;28;20045;-76
2021/05/01 01:48:29;;;;;;;70.38;42.90;;;;;;;6.26;100.00;100874.38;5027295;28;20052;-77
2021/05/01 01:50:55;;;;;;;82.03;45.70;;;;;;;6.28;100.00;100871.59;5019290;28;20136;-78
2021/05/01 01:53:23;;;;;;;75.82;39.78;;;;;;;6.14;100.00;100871.97;5024974;28;20072;-77
2021/05/01 01:55:48;;;;;;;80.18;46.72;;;;;;;6.23;100.00;100874.66;5038349;28;20054;-77
2021/05/01 01:58:15;;;;;;;77.32;45.22;;;;;;;6.20;100.00;100868.75;5009415;28;20056;-77
2021/05/01 02:00:40;;;;;;;78.88;44.70;;;;;;;6.20;100.00;100871.41;5042486;28;20045;-77
2021/05/01 02:03:06;;;;;;;76.82;43.60;;;;;;;6.23;100.00;100879.16;5015080;28;20394;-76
2021/05/01 02:05:31;;;;;;;79.57;44.28;;;;;;;6.15;100.00;100877.13;5028926;28;20136;-78
2021/05/01 02:07:57;;;;;;;81.85;43.70;;;;;;;6.20;100.00;100864.25;5040758;28;20485;-78
2021/05/01 02:10:24;;;;;;;79.97;46.80;;;;;;;6.27;100.00;100880.53;5040949;28;20044;-77
2021/05/01 02:12:50;;;;;;;74.53;41.92;;;;;;;6.25;100.00;100877.19;5034680;28;20076;-76
2021/05/01 02:15:21;;;;;;;77.80;45.55;;;;;;;6.22;100.00;100867.66;5039297;28;20124;-79
2021/05/01 02:17:52;;;;;;;80.13;48.35;;;;;;;6.28;100.00;100875.09;5044244;28;20568;-76
2021/05/01 02:20:22;;;;;;;86.85;45.95;;;;;;;6.20;100.00;100869.59;5002196;28;20187;-77
2021/05/01 02:22:48;;;;;;;78.55;41.88;;;;;;;6.16;100.00;100870.84;5034923;28;20048;-77
2021/05/01 02:25:14;;;;;;;77.28;41.20;;;;;;;6.23;100.00;100868.47;5034734;28;20041;-80
2021/05/01 02:27:41;;;;;;;84.97;44.78;;;;;;;6.26;100.00;100863.72;5040083;28;20036;-76
2021/05/01 02:30:09;;;;;;;81.65;45.85;;;;;;;6.26;100.00;100860.22;5041140;28;20543;-79
2021/05/01 02:32:34;;;;;;;77.22;42.42;;;;;;;6.26;100.00;100860.22;5041114;28;20041;-78
2021/05/01 02:35:00;;;;;;;83.25;44.70;;;;;;;6.25;100.00;100858.53;5034344;28;20090;-76
2021/05/01 02:37:25;;;;;;;83.57;41.78;;;;;;;6.20;100.00;100858.94;5032604;28;20055;-78
2021/05/01 02:39:51;;;;;;;78.68;44.22;;;;;;;6.21;100.00;100865.09;5027691;28;20033;-78
2021/05/01 02:42:17;;;;;;;76.72;41.45;;;;;;;6.21;100.00;100865.09;5037263;28;20439;-76
2021/05/01 02:44:42;;;;;;;87.65;49.28;;;;;;;6.29;100.00;100851.94;5039417;28;20033;-79
2021/05/01 02:47:07;;;;;;;85.45;44.33;;;;;;;6.28;100.00;100858.28;5007303;28;20049;-78
2021/05/01 02:49:33;;;;;;;86.00;51.72;;;;;;;6.31;100.00;100855.34;5044067;28;20374;-79
2021/05/01 02:51:58;;;;;;;81.50;47.03;;;;;;;6.26;100.00;100858.38;5020312;28;20056;-78
2021/05/01 02:54:24;;;;;;;78.60;43.38;;;;;;;6.26;100.00;100862.88;5043296;28;20492;-79
2021/05/01 02:56:50;;;;;;;81.15;51.53;;;;;;;6.29;100.00;100857.28;5024939;28;20036;-76
2021/05/01 02:59:15;;;;;;;85.30;47.63;;;;;;;6.28;100.00;100850.28;5042580;28;20618;-76
2021/05/01 03:01:40;;;;;;;86.85;46.17;;;;;;;6.25;100.00;100850.53;5028229;28;20076;-76
2021/05/01 03:04:06;;;;;;;81.13;44.28;;;;;;;6.21;100.00;100849.09;5049944;28;20136;-78
2021/05/01 03:06:31;;;;;;;85.53;52.33;;;;;;;6.27;100.00;100846.78;5018104;28;20489;-76
2021/05/01 03:08:57;;;;;;;86.93;52.33;;;;;;;6.31;100.00;100839.34;5021318;28;20436;-78
2021/05/01 03:11:22;;;;;;;81.90;45.25;;;;;;;6.25;100.00;100838.06;5020474;28;20045;-75
2021/05/01 03:13:47;;;;;;;81.85;46.63;;;;;;;6.21;100.00;100825.13;5024870;28;20049;-79
2021/05/01 03:16:13;;;;;;;87.25;51.13;;;;;;;6.26;100.00;100829.06;5010914;28;20549;-78
2021/05/01 03:18:38;;;;;;;87.13;52.53;;;;;;;6.25;100.00;100838.06;5022615;28;20041;-77
2021/05/01 03:21:04;;;;;;;83.55;49.00;;;;;;;6.24;100.00;100827.53;5012168;28;20037;-78
2021/05/01 03:23:29;;;;;;;82.15;43.85;;;;;;;6.20;100.00;100834.13;5042278;28;20040;-78
2021/05/01 03:25:54;;;;;;;72.38;42.25;;;;;;;6.17;100.00;100837.03;5015319;28;20457;-77
2021/05/01 03:28:22;;;;;;;77.80;43.75;;;;;;;6.18;100.00;100849.38;5040764;28;20110;-78
2021/05/01 03:30:48;;;;;;;84.60;50.25;;;;;;;6.27;100.00;100845.91;5040056;28;20564;-78
2021/05/01 03:33:14;;;;;;;77.28;46.90;;;;;;;6.27;100.00;100848.56;5014033;28;20155;-76
2021/05/01 03:35:39;;;;;;;77.43;48.83;;;;;;;6.25;100.00;100846.06;5039061;28;20594;-79
2021/05/01 03:38:05;;;;;;;76.97;40.97;;;;;;;6.25;100.00;100850.53;5031021;28;20048;-78
2021/05/01 03:40:30;;;;;;;74.80;43.13;;;;;;;6.28;100.00;100844.94;5041480;28;20115;-76
2021/05/01 03:42:56;;;;;;;81.47;49.55;;;;;;;6.34;100.00;100839.06;5024700;28;20048;-76
2021/05/01 03:45:21;;;;;;;72.53;40.20;;;;;;;6.27;100.00;100832.56;5029588;28;20052;-77
2021/05/01 03:47:48;;;;;;;72.18;41.10;;;;;;;6.20;100.00;100836.78;5006585;28;20459;-76
2021/05/01 03:50:13;;;;;;;73.65;43.55;;;;;;;6.23;100.00;100833.84;5044300;28;20524;-79
2021/05/01 03:52:39;;;;;;;77.22;44.83;;;;;;;6.21;100.00;100833.97;5009174;28;20033;-78
2021/05/01 03:55:06;;;;;;;72.60;41.53;;;;;;;6.17;100.00;100832.56;5017493;28;20410;-75
2021/05/01 03:57:31;;;;;;;76.22;42.58;;;;;;;6.17;100.00;100829.06;5012612;28;20065;-77
2021/05/01 03:59:56;;;;;;;72.22;40.75;;;;;;;6.13;100.00;100822.28;5009327;28;20045;-76
2021/05/01 04:02:22;;;;;;;76.22;47.05;;;;;;;6.15;100.00;100825.66;5025730;28;20048;-77
2021/05/01 04:04:47;;;;;;;77.22;47.47;;;;;;;6.15;100.00;100834.50;5043083;28;20060;-76
2021/05/01 04:07:13;;;;;;;73.55;44.00;;;;;;;6.06;100.00;100825.50;5026166;28;20128;-79
2021/05/01 04:09:39;;;;;;;73.95;45.20;;;;;;;6.06;100.00;100829.97;5025567;28;20047;-76
2021/05/01 04:12:05;;;;;;;77.45;44.80;;;;;;;6.03;100.00;100832.91;5040910;28;20052;-79
2021/05/01 04:14:30;;;;;;;69.55;39.38;;;;;;;5.93;100.00;100824.91;5023701;28;20045;-76
2021/05/01 04:16:55;;;;;;;78.22;48.58;;;;;;;5.98;100.00;100827.13;5032299;28;20044;-76
2021/05/01 04:19:21;;;;;;;73.70;45.67;;;;;;;5.94;100.00;100826.56;5011186;28;20127;-76
2021/05/01 04:21:46;;;;;;;73.18;43.85;;;;;;;5.94;100.00;100834.56;5036029;28;20056;-78
2021/05/01 04:24:12;;;;;;;73.82;42.15;;;;;;;5.85;100.00;100825.53;5013724;28;20045;-76
2021/05/01 04:26:38;;;;;;;69.78;38.55;;;;;;;5.79;100.00;100827.88;5028688;28;20046;-78
2021/05/01 04:29:03;;;;;;;69.82;40.85;;;;;;;5.80;100.00;100827.72;5028667;28;20065;-76
2021/05/01 04:31:29;;;;;;;74.35;44.75;;;;;;;5.81;100.00;100825.91;5038985;28;20045;-76
2021/05/01 04:33:54;;;;;;;74.65;44.05;;;;;;;5.85;100.00;100833.50;5011757;28;20539;-78
2021/05/01 04:36:19;;;;;;;73.10;42.08;;;;;;;5.79;100.00;100844.69;5045187;28;20044;-78
2021/05/01 04:38:45;;;;;;;73.05;40.70;;;;;;;5.74;100.00;100846.91;5042100;28;20047;-77
2021/05/01 04:41:11;;;;;;;78.32;48.13;;;;;;;5.78;100.00;100842.16;5045866;28;20100;-76
2021/05/01 04:43:38;;;;;;;80.00;47.42;;;;;;;5.80;100.00;100841.03;5027640;28;20045;-76
2021/05/01 04:46:05;;;;;;;80.25;41.67;;;;;;;5.76;100.00;100839.63;5045910;28;20052;-76
2021/05/01 04:48:31;;;;;;;76.78;45.35;;;;;;;5.74;100.00;100851.38;5022425;28;20045;-77
2021/05/01 04:50:56;;;;;;;79.75;47.28;;;;;;;5.72;100.00;100850.66;5051619;28;20047;-78
2021/05/01 04:53:23;;;;;;;76.20;41.50;;;;;;;5.64;100.00;100848.69;5030457;28;20496;-78
2021/05/01 04:55:48;;;;;;;74.70;42.50;;;;;;;5.62;100.00;100847.97;5047057;28;20045;-78
2021/05/01 04:58:14;;;;;;;82.97;48.83;;;;;;;5.69;100.00;100853.59;5045228;28;20060;-78
2021/05/01 05:00:40;;;;;;;78.68;42.17;;;;;;;5.62;100.00;100858.63;5048995;28;20052;-78
2021/05/01 05:03:06;;;;;;;77.07;44.22;;;;;;;5.53;100.00;100852.25;5050960;28;20080;-77
2021/05/01 05:05:31;;;;;;;75.25;43.55;;;;;;;5.54;100.00;100864.56;5043653;28;20497;-76
2021/05/01 05:07:56;;;;;;;79.65;50.30;;;;;;;5.59;100.00;100865.03;5029047;28;20126;-75
2021/05/01 05:10:22;;;;;;;79.15;45.25;;;;;;;5.45;100.00;100861.84;5047626;28;20045;-77
2021/05/01 05:12:48;;;;;;;80.70;50.35;;;;;;;5.53;100.00;100864.72;5048646;28;20214;-79
2021/05/01 05:15:14;;;;;;;85.43;50.08;;;;;;;5.52;100.00;100866.50;5044530;28;20068;-77
2021/05/01 05:17:39;;;;;;;80.40;48.80;;;;;;;5.50;100.00;100873.81;5049602;28;20041;-77
2021/05/01 05:20:05;;;;;;;85.20;45.47;;;;;;;5.48;100.00;100872.25;5020355;28;20122;-75
2021/05/01 05:22:31;;;;;;;84.95;46.83;;;;;;;5.49;100.00;100869.44;5041722;28;20076;-77
2021/05/01 05:24:56;;;;;;;86.13;52.63;;;;;;;5.54;100.00;100872.56;5042987;28;20997;-77
2021/05/01 05:27:22;;;;;;;83.70;50.40;;;;;;;5.57;100.00;100874.97;5027088;28;20055;-77
2021/05/01 05:29:51;;;;;;;92.55;53.03;;;;;;;5.59;100.00;100875.69;5052125;28;20642;-76
2021/05/01 05:32:22;;;;;;;85.45;51.08;;;;;;;5.61;100.00;100879.06;5040596;28;20049;-77
2021/05/01 05:34:48;;;;;;;84.47;50.03;;;;;;;5.59;100.00;100886.34;5042356;28;20044;-75
2021/05/01 05:37:13;;;;;;;86.45;46.80;;;;;;;5.58;100.00;100886.44;5046804;28;20101;-77
2021/05/01 05:39:41;;;;;;;87.28;51.65;;;;;;;5.63;100.00;100882.44;5044556;28;20049;-78
2021/05/01 05:42:08;;;;;;;92.20;48.63;;;;;;;5.67;100.00;100888.34;5028839;28;20067;-74
2021/05/01 05:44:34;;;;;;;87.15;50.92;;;;;;;5.73;100.00;100893.16;5050889;28;20138;-77
2021/05/01 05:47:01;;;;;;;78.35;44.78;;;;;;;5.71;100.00;100895.09;5025644;28;20495;-76
2021/05/01 05:49:26;;;;;;;83.15;51.08;;;;;;;5.76;100.00;100897.38;5056374;28;20052;-78
2021/05/01 05:51:52;;;;;;;84.30;54.90;;;;;;;5.84;100.00;100893.09;5023789;28;20059;-75
2021/05/01 05:54:17;;;;;;;80.95;52.17;;;;;;;5.92;100.00;100900.41;5022778;28;20063;-75
2021/05/01 05:56:42;;;;;;;74.47;43.03;;;;;;;5.81;100.00;100897.81;5043030;28;20059;-76
2021/05/01 05:59:08;;;;;;;78.93;46.80;;;;;;;5.77;100.00;100902.56;5010074;28;20105;-75
2021/05/01 06:01:39;;;;;;;74.85;41.53;;;;;;;5.74;100.00;100897.50;5012386;28;20045;-75
2021/05/01 06:04:08;;;;;;;78.63;46.17;;;;;;;5.73;100.00;100900.31;5021719;28;20041;-76
2021/05/01 06:06:34;;;;;;;69.25;40.28;;;;;;;5.76;100.00;100905.38;5030388;28;20041;-75
2021/05/01 06:09:02;;;;;;;76.50;46.22;;;;;;;5.87;100.00;100907.97;5036496;28;20049;-77
2021/05/01 06:11:29;;;;;;;72.93;44.80;;;;;;;5.84;100.00;100905.53;5044918;28;20095;-76
2021/05/01 06:14:02;;;;;;;74.72;45.72;;;;;;;5.95;100.00;100902.00;5042348;28;20059;-74
2021/05/01 06:16:29;;;;;;;73.20;44.65;;;;;;;6.02;100.00;100901.34;5027801;28;20076;-76
2021/05/01 06:18:55;;;;;;;68.20;39.67;;;;;;;6.00;100.00;100903.28;5044295;28;20036;-77
2021/05/01 06:21:20;;;;;;;61.63;39.45;;;;;;;5.96;100.00;100901.88;5019648;28;20079;-74
2021/05/01 06:23:47;;;;;;;62.67;40.00;;;;;;;6.03;100.00;100905.69;5018672;28;20064;-79
2021/05/01 06:26:13;;;;;;;65.32;43.33;;;;;;;6.10;100.00;100904.19;5037211;28;20128;-76
2021/05/01 06:28:38;;;;;;;66.20;38.25;;;;;;;6.13;100.00;100904.88;5026571;28;20123;-78
2021/05/01 06:31:06;;;;;;;62.97;38.95;;;;;;;6.19;100.00;100905.22;5041160;28;20477;-76
2021/05/01 06:33:35;;;;;;;59.22;39.13;;;;;;;6.23;100.00;100908.47;5041819;28;20352;-75
2021/05/01 06:36:03;;;;;;;61.65;36.85;;;;;;;6.32;100.00;100902.31;5048057;28;20546;-75
2021/05/01 06:38:29;;;;;;;57.33;39.03;;;;;;;6.39;100.00;100903.50;5007987;28;20479;-75
2021/05/01 06:41:03;;;;;;;58.63;37.28;;;;;;;6.34;100.00;100903.03;5046751;28;20089;-77
2021/05/01 06:43:47;;;;;;;57.08;37.72;;;;;;;6.37;100.00;100908.09;5017045;28;20045;-77
2021/05/01 06:46:18;;;;;;;60.03;38.10;;;;;;;6.37;100.00;100904.59;5058085;28;20044;-76
2021/05/01 06:48:53;;;;;;;56.50;40.25;;;;;;;6.52;100.00;100906.75;5045561;28;20055;-75
2021/05/01 06:51:19;;;;;;;59.75;36.40;;;;;;;6.51;100.00;100902.41;5033102;28;20135;-79
2021/05/01 06:53:45;;;;;;;59.92;36.22;;;;;;;6.48;100.00;100902.66;5055909;28;20144;-77
2021/05/01 06:56:12;;;;;;;55.40;38.47;;;;;;;6.64;100.00;100898.63;5054986;28;20045;-75
2021/05/01 06:58:39;;;;;;;54.78;38.15;;;;;;;6.71;100.00;100908.63;5042752;28;20048;-78
2021/05/01 07:01:08;;;;;;;53.72;35.90;;;;;;;6.62;100.00;100901.47;5043048;28;20037;-77
2021/05/01 07:03:40;;;;;;;52.30;36.00;;;;;;;6.72;100.00;100912.16;5021806;28;20049;-79
2021/05/01 07:06:05;;;;;;;53.47;33.80;;;;;;;6.78;100.00;100909.75;5019478;28;20099;-76
2021/05/01 07:08:32;;;;;;;49.88;35.55;;;;;;;6.88;100.00;100899.13;5022670;28;20045;-78
2021/05/01 07:10:57;;;;;;;50.25;28.63;;;;;;;6.81;100.00;100905.97;5041372;28;20440;-77
2021/05/01 07:13:24;;;;;;;45.22;29.50;;;;;;;6.70;100.00;100904.28;5044578;28;20064;-79
2021/05/01 07:15:52;;;;;;;50.50;35.15;;;;;;;6.93;100.00;100899.56;5023137;28;20530;-77
2021/05/01 07:18:21;;;;;;;43.53;31.23;;;;;;;6.96;100.00;100903.75;5037980;28;20044;-76
2021/05/01 07:20:47;;;;;;;45.67;32.60;;;;;;;7.04;100.00;100900.41;5025431;28;20045;-76
2021/05/01 07:23:12;;;;;;;41.78;29.23;;;;;;;7.13;100.00;100904.91;5039824;28;20053;-77
2021/05/01 07:25:38;;;;;;;44.78;30.13;;;;;;;7.16;100.00;100900.16;5044420;28;20045;-76
2021/05/01 07:28:06;;;;;;;40.47;29.60;;;;;;;7.17;100.00;100898.31;5041030;28;20075;-77
2021/05/01 07:30:38;;;;;;;35.60;25.02;;;;;;;7.25;100.00;100882.47;5044075;28;20048;-76
2021/05/01 07:33:27;;;;;;;37.20;25.80;;;;;;;7.33;100.00;100893.25;5024854;28;20045;-76
2021/05/01 07:36:01;;;;;;;40.42;24.95;;;;;;;7.44;100.00;100889.59;5040217;28;20103;-75
2021/05/01 07:38:27;;;;;;;36.10;23.48;;;;;;;7.40;100.00;100886.38;5033015;28;20049;-77
2021/05/01 07:40:54;;;;;;;30.20;22.65;;;;;;;7.67;98.78;100892.81;5025318;28;20064;-76
2021/05/01 07:43:21;;;;;;;31.25;22.38;;;;;;;7.75;95.95;100878.75;5034311;28;20073;-77
2021/05/01 07:45:52;;;;;;;32.63;22.13;;;;;;;7.74;95.96;100882.38;5040772;28;20041;-75
2021/05/01 07:48:19;;;;;;;29.73;20.60;;;;;;;7.71;94.83;100880.88;5044052;28;20597;-76
2021/05/01 07:50:46;;;;;;;28.15;18.45;;;;;;;7.80;94.42;100890.69;5029358;28;20048;-79
2021/05/01 07:53:12;;;;;;;23.23;15.77;;;;;;;7.91;93.61;100887.00;5022066;28;20045;-74
2021/05/01 07:55:38;;;;;;;21.83;16.55;;;;;;;8.04;91.87;100892.03;5010172;28;20049;-76
2021/05/01 07:58:03;;;;;;;23.83;17.33;;;;;;;8.23;91.91;100883.94;4994595;28;20037;-79
2021/05/01 08:00:31;;;;;;;27.33;18.25;;;;;;;8.35;90.79;100884.59;5040376;28;20057;-79
2021/05/01 08:02:57;;;;;;;22.30;16.73;;;;;;;8.33;89.22;100890.09;5046875;28;20044;-79
2021/05/01 08:05:22;;;;;;;27.35;16.77;;;;;;;8.24;88.66;100899.00;5034502;28;20057;-79
2021/05/01 08:07:51;;;;;;;23.50;15.77;;;;;;;8.32;88.12;100893.75;5032685;28;20485;-75
2021/05/01 08:10:17;;;;;;;21.88;15.07;;;;;;;8.32;87.70;100903.63;5050938;28;20045;-77
2021/05/01 08:12:42;;;;;;;25.02;17.92;;;;;;;8.43;89.02;100910.63;5062470;28;20056;-78
2021/05/01 08:15:09;;;;;;;23.40;17.52;;;;;;;8.52;88.21;100915.09;5064188;28;20189;-76
2021/05/01 08:17:34;;;;;;;16.67;14.13;;;;;;;8.54;84.72;100918.47;5039759;28;20075;-79
2021/05/01 08:19:59;;;;;;;18.83;13.40;;;;;;;8.40;82.25;100919.81;5010952;28;20087;-79
2021/05/01 08:22:25;;;;;;;21.42;14.18;;;;;;;8.55;84.29;100914.81;5013795;28;20476;-76
2021/05/01 08:24:50;;;;;;;19.17;13.23;;;;;;;8.46;82.52;100908.53;5048130;28;20037;-80
2021/05/01 08:27:16;;;;;;;20.35;13.40;;;;;;;8.37;82.52;100914.69;5049279;28;20045;-79
2021/05/01 08:29:41;;;;;;;20.05;14.55;;;;;;;8.65;85.68;100910.25;5043839;28;20486;-79
2021/05/01 08:32:07;;;;;;;16.65;13.23;;;;;;;8.81;82.34;100894.38;5045048;28;20079;-75
2021/05/01 08:34:32;;;;;;;18.00;11.52;;;;;;;8.68;78.77;100898.41;5047318;28;20037;-78
2021/05/01 08:36:58;;;;;;;15.77;10.88;;;;;;;8.67;79.37;100900.25;5031842;28;20041;-78
2021/05/01 08:39:24;;;;;;;14.30;10.90;;;;;;;8.63;78.78;100898.88;5049693;28;20053;-77
2021/05/01 08:41:49;;;;;;;14.60;10.48;;;;;;;8.70;76.47;100891.06;5047202;28;20080;-76
2021/05/01 08:44:14;;;;;;;13.73;9.35;;;;;;;8.87;74.32;100892.09;5043923;28;20037;-80
2021/05/01 08:46:40;;;;;;;16.10;11.02;;;;;;;8.91;75.46;100885.44;5029186;28;20079;-78
2021/05/01 08:49:08;;;;;;;14.93;11.40;;;;;;;9.21;78.79;100885.09;5050144;28;20045;-77
2021/05/01 08:51:36;;;;;;;18.02;11.75;;;;;;;9.02;77.35;100886.06;5038581;28;20477;-77
2021/05/01 08:54:01;;;;;;;15.27;9.82;;;;;;;9.00;73.48;100876.50;5054111;28;20037;-77
2021/05/01 08:56:27;;;;;;;18.45;10.80;;;;;;;9.03;75.04;100886.91;5023935;28;20090;-77
2021/05/01 08:58:54;;;;;;;15.80;10.63;;;;;;;9.09;75.25;100883.66;5051807;28;20037;-76
2021/05/01 09:01:21;;;;;;;15.35;10.27;;;;;;;8.91;74.55;100878.25;5056979;28;20056;-79
2021/05/01 09:03:46;;;;;;;15.25;11.30;;;;;;;9.00;75.06;100881.84;5048444;28;20142;-79
2021/05/01 09:06:12;;;;;;;14.43;9.85;;;;;;;9.13;74.01;100886.84;5024197;28;20131;-78
2021/05/01 09:08:41;;;;;;;14.73;10.38;;;;;;;9.03;73.47;100876.19;5032493;28;20414;-75
2021/05/01 09:11:07;;;;;;;16.20;10.20;;;;;;;9.29;70.28;100880.78;5046650;28;20407;-77
2021/05/01 09:13:33;;;;;;;14.82;10.95;;;;;;;9.37;72.41;100876.34;5038348;28;20040;-76
2021/05/01 09:16:08;;;;;;;14.60;10.32;;;;;;;9.77;72.59;100882.19;5034678;28;20051;-76
2021/05/01 09:18:48;;;;;;;13.05;9.73;;;;;;;9.76;70.59;100872.47;5032760;28;20040;-77
2021/05/01 09:21:22;;;;;;;13.75;9.73;;;;;;;9.85;71.01;100892.97;5003912;28;20033;-78
2021/05/01 09:23:47;;;;;;;14.65;10.20;;;;;;;9.82;71.40;100887.94;5016969;28;20072;-79
2021/05/01 09:26:13;;;;;;;18.40;11.18;;;;;;;9.85;71.08;100892.97;4991947;28;20560;-75
2021/05/01 09:28:52;;;;;;;12.07;9.27;;;;;;;9.82;69.16;100885.25;5008743;28;20045;-80
2021/05/01 09:31:19;;;;;;;13.82;10.75;;;;;;;9.80;70.42;100881.88;5019595;28;20084;-79
2021/05/01 09:33:52;;;;;;;14.65;10.45;;;;;;;9.89;70.57;100888.97;4985224;28;20143;-78
2021/05/01 09:36:24;;;;;;;14.35;9.88;;;;;;;10.20;70.67;100885.81;5001076;28;20135;-79
2021/05/01 09:39:08;;;;;;;11.98;8.70;;;;;;;10.29;67.43;100884.88;5031474;28;20134;-79
2021/05/01 09:41:40;;;;;;;12.40;7.38;;;;;;;10.19;64.56;100895.69;4981504;28;20060;-78
2021/05/01 09:44:10;;;;;;;14.02;8.40;;;;;;;10.17;66.56;100893.16;5019555;28;20103;-78
2021/05/01 09:46:39;;;;;;;13.07;9.35;;;;;;;10.44;67.08;100899.34;5003790;28;20041;-81
2021/05/01 09:49:18;;;;;;;11.47;9.00;;;;;;;10.50;65.18;100898.75;5007129;28;20605;-80
2021/05/01 09:51:52;;;;;;;10.57;7.32;;;;;;;10.37;61.46;100887.59;5000996;28;20284;-77
2021/05/01 09:54:20;;;;;;;11.40;6.72;;;;;;;10.12;58.80;100898.16;5038547;28;20500;-82
2021/05/01 09:56:48;;;;;;;10.38;7.25;;;;;;;10.16;62.38;100902.22;5050268;28;20052;-79
2021/05/01 09:59:14;;;;;;;10.65;7.30;;;;;;;10.09;60.26;100895.78;5057339;28;20485;-79
2021/05/01 10:01:40;;;;;;;10.32;7.55;;;;;;;10.06;59.63;100898.78;5036405;28;20129;-80
2021/05/01 10:04:14;;;;;;;12.85;7.50;;;;;;;9.86;60.72;100894.63;5041548;28;20086;-80
2021/05/01 10:06:48;;;;;;;12.20;8.95;;;;;;;9.98;64.53;100898.75;5031352;28;20400;-79
2021/05/01 10:09:25;;;;;;;11.40;8.32;;;;;;;10.00;65.18;100890.56;5040664;28;20440;-79
2021/05/01 10:11:52;;;;;;;11.88;8.43;;;;;;;9.98;65.47;100890.69;5043499;28;20037;-78
2021/05/01 10:14:43;;;;;;;14.98;9.43;;;;;;;10.02;66.02;100892.06;5041645;28;20079;-76
2021/05/01 10:17:14;;;;;;;13.70;10.20;;;;;;;10.11;67.23;100888.44;5026966;28;20077;-78
2021/05/01 10:19:47;;;;;;;12.60;9.50;;;;;;;10.21;66.72;100885.63;5037104;28;20116;-77
2021/05/01 10:22:28;;;;;;;12.45;11.07;;;;;;;10.34;66.34;100877.19;5030543;28;20029;-77
2021/05/01 10:25:06;;;;;;;14.85;10.70;;;;;;;10.39;68.36;100874.88;5021130;28;20045;-78
2021/05/01 10:27:41;;;;;;;12.83;10.47;;;;;;;10.76;67.67;100882.56;5024509;28;20378;-79
2021/05/01 10:30:58;;;;;;;11.32;7.93;;;;;;;10.72;60.19;100881.19;5028749;28;20044;-81
2021/05/01 10:36:15;;;;;;;10.38;8.57;;;;;;;10.66;61.96;100884.53;5044520;28;20037;-78
2021/05/01 10:38:42;;;;;;;12.07;8.32;;;;;;;10.67;61.13;100886.19;5023011;28;20072;-80
2021/05/01 10:41:17;;;;;;;9.95;7.95;;;;;;;10.72;60.98;100896.47;5043812;28;20044;-79
2021/05/01 10:43:51;;;;;;;12.52;8.48;;;;;;;10.64;61.44;100889.22;5025111;28;20133;-81
2021/05/01 10:46:25;;;;;;;10.98;8.75;;;;;;;10.63;61.03;100892.91;5046861;28;20045;-78
2021/05/01 10:48:54;;;;;;;10.40;8.43;;;;;;;10.72;61.96;100893.78;5025298;28;20041;-77
2021/05/01 10:51:22;;;;;;;11.82;7.20;;;;;;;10.61;58.29;100895.75;5036897;28;20041;-77
2021/05/01 10:54:05;;;;;;;10.38;6.82;;;;;;;10.48;57.63;100887.31;5034624;28;20084;-76
2021/05/01 10:56:32;;;;;;;10.63;7.05;;;;;;;10.54;57.51;100889.34;5036022;28;20106;-79
2021/05/01 10:59:06;;;;;;;10.38;7.97;;;;;;;10.79;59.70;100876.03;5040751;28;20055;-77
2021/05/01 11:01:48;;;;;;;9.48;6.82;;;;;;;10.79;58.00;100871.50;5027478;28;20097;-76
2021/05/01 11:04:24;;;;;;;11.70;8.32;;;;;;;10.88;58.30;100871.53;5026230;28;20510;-79
2021/05/01 11:07:17;;;;;;;11.13;8.27;;;;;;;10.95;59.82;100881.41;5040775;28;20105;-78
2021/05/01 11:09:51;;;;;;;11.75;7.65;;;;;;;10.95;59.93;100881.41;5026003;28;20055;-81
2021/05/01 11:12:21;;;;;;;9.65;6.10;;;;;;;10.85;55.77;100886.13;5031761;28;20068;-77
2021/05/01 11:14:52;;;;;;;8.77;6.57;;;;;;;10.81;56.60;100892.78;5033960;28;20037;-83
2021/05/01 11:17:37;;;;;;;10.15;7.03;;;;;;;10.67;56.96;100882.69;5047025;28;20045;-78